Time;durP1;ratioP1;P1;durP2;ratioP2;P2;SDS_P1;SDS_P2;PMS_P1;PMS_P2;Temp;Humidity;BMP_temperature;BMP_pressure;BME280_temperature;BME280_humidity;BME280_pressure;Samples;Min_cycle;Max_cycle;Signal;HPM_P1;HPM_P2
2023/09/10 00:01:33;;;;;;;0.15;0.15;;;;;;;17.34;72.68;97720.69;5025526;28;20127;-71
2023/09/10 00:04:01;;;;;;;0.08;0.08;;;;;;;17.30;72.92;97722.19;5031581;28;20522;-71
2023/09/10 00:06:29;;;;;;;0.20;0.20;;;;;;;17.52;71.95;97720.56;5033359;28;20431;-71
2023/09/10 00:08:57;;;;;;;0.08;0.08;;;;;;;17.45;72.38;97719.84;5033209;28;20049;-71
2023/09/10 00:11:24;;;;;;;0.20;0.20;;;;;;;17.34;72.74;97720.69;5033578;28;20037;-71
2023/09/10 00:13:53;;;;;;;0.10;0.10;;;;;;;17.22;73.58;97713.41;5032911;28;20045;-72
2023/09/10 00:16:21;;;;;;;0.10;0.10;;;;;;;17.32;72.94;97720.91;5033577;28;20098;-71
2023/09/10 00:18:49;;;;;;;0.15;0.15;;;;;;;17.24;73.35;97722.06;5032112;28;20746;-72
2023/09/10 00:21:16;;;;;;;0.15;0.15;;;;;;;17.32;72.71;97722.78;5033340;28;20034;-72
2023/09/10 00:23:44;;;;;;;0.15;0.15;;;;;;;17.18;73.12;97722.19;5028713;28;20507;-72
2023/09/10 00:26:12;;;;;;;0.13;0.13;;;;;;;17.10;73.90;97723.34;5033574;28;20041;-72
2023/09/10 00:28:44;;;;;;;0.13;0.13;;;;;;;17.07;73.61;97718.41;5033121;28;20036;-72
2023/09/10 00:31:14;;;;;;;0.03;0.03;;;;;;;17.06;73.61;97719.47;5028113;28;20481;-72
2023/09/10 00:33:41;;;;;;;0.13;0.13;;;;;;;16.95;74.32;97720.28;5030329;28;20045;-71
2023/09/10 00:36:09;;;;;;;0.13;0.13;;;;;;;17.16;73.36;97722.41;5032753;28;20121;-71
2023/09/10 00:38:37;;;;;;;0.10;0.10;;;;;;;17.03;73.51;97724.50;5032022;28;20041;-71
2023/09/10 00:41:07;;;;;;;0.03;0.03;;;;;;;17.06;73.34;97724.88;5032485;28;20121;-71
2023/09/10 00:43:35;;;;;;;0.13;0.13;;;;;;;17.06;73.39;97722.16;5031681;28;20416;-71
2023/09/10 00:46:03;;;;;;;0.13;0.13;;;;;;;16.82;74.69;97725.88;5033770;28;20053;-71
2023/09/10 00:48:33;;;;;;;0.10;0.10;;;;;;;16.75;75.00;97727.84;5033413;28;20523;-71
2023/09/10 00:51:01;;;;;;;0.25;0.25;;;;;;;16.87;74.84;97726.00;5028948;28;20041;-72
2023/09/10 00:53:29;;;;;;;0.13;0.13;;;;;;;16.96;74.66;97721.09;5026702;28;20042;-72
2023/09/10 00:55:57;;;;;;;0.03;0.03;;;;;;;16.94;74.09;97724.03;5030089;28;20128;-71
2023/09/10 00:58:25;;;;;;;0.05;0.05;;;;;;;16.78;74.85;97720.13;5031468;28;20132;-72
2023/09/10 01:00:52;;;;;;;0.08;0.08;;;;;;;16.75;74.66;97733.25;5030796;28;20033;-71
2023/09/10 01:03:21;;;;;;;0.20;0.20;;;;;;;16.60;74.83;97722.06;5030504;28;20404;-72
2023/09/10 01:05:50;;;;;;;0.17;0.17;;;;;;;16.52;75.09;97723.19;5021865;28;20041;-72
2023/09/10 01:08:18;;;;;;;0.13;0.13;;;;;;;16.55;74.70;97722.72;5031240;28;20059;-72
2023/09/10 01:10:50;;;;;;;0.10;0.10;;;;;;;16.49;75.02;97724.47;5022916;28;20052;-71
2023/09/10 01:13:21;;;;;;;;;;;;;;;16.47;74.92;97720.38;5030832;28;20057;-72
2023/09/10 01:15:53;;;;;;;0.20;0.20;;;;;;;16.51;74.79;97725.03;5030893;28;19963;-71
2023/09/10 01:18:24;;;;;;;0.10;0.10;;;;;;;16.28;75.73;97730.38;5031127;28;20121;-71
2023/09/10 01:21:10;;;;;;;0.10;0.10;;;;;;;16.20;75.67;97721.75;5032072;28;20071;-71
2023/09/10 01:23:51;;;;;;;0.20;0.20;;;;;;;16.18;76.36;97726.56;5030379;28;20045;-72
2023/09/10 01:26:20;;;;;;;0.10;0.10;;;;;;;16.08;76.83;97719.03;5028530;28;20485;-71
2023/09/10 01:28:47;;;;;;;0.20;0.20;;;;;;;16.15;76.64;97720.56;5030232;28;20123;-71
2023/09/10 01:31:15;;;;;;;0.25;0.25;;;;;;;16.22;76.38;97715.09;5024135;28;20033;-72
2023/09/10 01:33:47;;;;;;;0.13;0.13;;;;;;;16.19;76.71;97720.97;5017198;28;20041;-73
2023/09/10 01:36:16;;;;;;;0.03;0.03;;;;;;;16.04;77.53;97724.03;5020165;28;20042;-72
2023/09/10 01:38:50;;;;;;;0.13;0.13;;;;;;;16.21;76.64;97729.59;5030867;28;20693;-71
2023/09/10 01:41:20;;;;;;;0.10;0.10;;;;;;;16.14;76.86;97729.69;5021381;28;20060;-72
2023/09/10 01:43:49;;;;;;;0.13;0.13;;;;;;;16.04;77.20;97723.22;5029863;28;20046;-72
2023/09/10 01:46:17;;;;;;;0.13;0.13;;;;;;;15.98;77.81;97724.94;5023930;28;20073;-72
2023/09/10 01:48:45;;;;;;;0.15;0.15;;;;;;;16.11;77.25;97722.06;5031409;28;20107;-72
2023/09/10 01:51:13;;;;;;;0.10;0.10;;;;;;;16.10;77.61;97719.59;5030044;28;20526;-71
2023/09/10 01:53:40;;;;;;;0.20;0.20;;;;;;;16.08;77.46;97727.09;5050128;23;20508;-70
2023/09/10 01:56:08;;;;;;;0.13;0.13;;;;;;;16.03;77.49;97724.25;5026843;28;20037;-70
2023/09/10 01:58:38;;;;;;;0.17;0.17;;;;;;;15.78;78.65;97730.53;5022472;28;20495;-70
2023/09/10 02:01:06;;;;;;;0.13;0.13;;;;;;;15.93;77.84;97724.78;5018886;28;20064;-69
2023/09/10 02:03:34;;;;;;;0.13;0.13;;;;;;;16.00;76.96;97730.09;5018646;28;20042;-70
2023/09/10 02:06:03;;;;;;;0.10;0.10;;;;;;;15.93;77.05;97730.16;5025048;28;20046;-69
2023/09/10 02:08:31;;;;;;;0.03;0.03;;;;;;;16.04;76.16;97729.41;5020029;28;20044;-70
2023/09/10 02:10:58;;;;;;;0.20;0.20;;;;;;;15.97;76.09;97726.00;5032386;28;20509;-70
2023/09/10 02:13:26;;;;;;;0.20;0.20;;;;;;;15.88;76.21;97726.53;5030471;28;20040;-69
2023/09/10 02:15:55;;;;;;;0.20;0.20;;;;;;;15.89;76.17;97730.84;5021870;28;20500;-68
2023/09/10 02:18:23;;;;;;;0.20;0.20;;;;;;;15.88;75.96;97721.97;5025451;28;20042;-70
2023/09/10 02:20:51;;;;;;;0.40;0.40;;;;;;;15.76;76.31;97721.88;5017862;28;20049;-67
2023/09/10 02:23:18;;;;;;;0.22;0.22;;;;;;;15.85;76.06;97733.19;5027092;28;20045;-70
2023/09/10 02:25:46;;;;;;;0.20;0.20;;;;;;;15.93;75.79;97724.78;5026596;28;20045;-69
2023/09/10 02:28:14;;;;;;;0.20;0.20;;;;;;;16.14;74.88;97723.50;5022350;28;20046;-69
2023/09/10 02:30:42;;;;;;;0.25;0.25;;;;;;;15.95;75.33;97721.88;5015146;28;20046;-70
2023/09/10 02:33:11;;;;;;;0.13;0.13;;;;;;;15.85;75.68;97722.41;5019295;28;20045;-70
2023/09/10 02:35:39;;;;;;;0.13;0.13;;;;;;;15.79;76.11;97721.41;5017538;28;20525;-70
2023/09/10 02:38:06;;;;;;;0.10;0.10;;;;;;;15.71;76.19;97727.09;5018176;28;20555;-70
2023/09/10 02:40:34;;;;;;;0.10;0.10;;;;;;;15.82;75.82;97722.84;5024346;28;20447;-72
2023/09/10 02:43:02;;;;;;;0.15;0.15;;;;;;;15.72;75.95;97733.31;5013815;28;20046;-70
2023/09/10 02:45:29;;;;;;;0.03;0.03;;;;;;;15.56;76.17;97729.34;5025625;28;20049;-70
2023/09/10 02:47:57;;;;;;;0.03;0.03;;;;;;;15.49;76.75;97731.25;5027164;28;20048;-69
2023/09/10 02:50:26;;;;;;;0.20;0.20;;;;;;;15.43;76.84;97732.13;5016986;28;20043;-70
2023/09/10 02:52:54;;;;;;;0.03;0.03;;;;;;;15.36;77.36;97726.00;5014637;28;20050;-69
2023/09/10 02:55:22;;;;;;;0.13;0.13;;;;;;;15.39;76.72;97728.22;5018946;28;20081;-70
2023/09/10 02:57:50;;;;;;;0.13;0.13;;;;;;;15.29;77.30;97733.28;5018521;28;20054;-70
2023/09/10 03:00:19;;;;;;;0.22;0.22;;;;;;;15.38;76.70;97735.47;5019770;28;20049;-70
2023/09/10 03:02:51;;;;;;;0.13;0.13;;;;;;;15.33;76.77;97737.19;5018324;28;20125;-70
2023/09/10 03:05:19;;;;;;;0.13;0.13;;;;;;;15.35;76.91;97740.50;5029105;28;20037;-70
2023/09/10 03:07:49;;;;;;;0.22;0.22;;;;;;;15.34;76.74;97736.16;5031201;28;20042;-71
2023/09/10 03:10:17;;;;;;;0.20;0.20;;;;;;;15.42;76.57;97730.50;5025808;28;20042;-69
2023/09/10 03:12:46;;;;;;;0.20;0.20;;;;;;;15.30;76.50;97733.09;5033196;28;20463;-70
2023/09/10 03:15:14;;;;;;;0.10;0.10;;;;;;;15.38;76.07;97730.09;5023897;28;20096;-70
2023/09/10 03:17:42;;;;;;;0.20;0.20;;;;;;;15.36;76.00;97728.69;5025285;28;20500;-70
2023/09/10 03:20:11;;;;;;;0.30;0.30;;;;;;;15.39;76.49;97730.94;5018908;28;20049;-70
2023/09/10 03:22:39;;;;;;;0.20;0.20;;;;;;;15.30;76.57;97729.56;5020154;28;20136;-70
2023/09/10 03:25:09;;;;;;;0.13;0.13;;;;;;;15.41;76.30;97731.53;5025907;28;20132;-70
2023/09/10 03:27:37;;;;;;;0.15;0.15;;;;;;;15.33;76.05;97729.13;5033266;28;20110;-70
2023/09/10 03:30:06;;;;;;;0.10;0.10;;;;;;;15.29;76.81;97728.75;5022683;28;20056;-70
2023/09/10 03:32:34;;;;;;;0.03;0.03;;;;;;;15.33;76.81;97726.44;5022649;28;20148;-69
2023/09/10 03:35:04;;;;;;;0.20;0.20;;;;;;;15.23;77.34;97726.13;5022788;28;20046;-69
2023/09/10 03:37:32;;;;;;;0.10;0.10;;;;;;;15.10;78.30;97723.53;5022449;28;20049;-70
2023/09/10 03:40:00;;;;;;;0.13;0.13;;;;;;;15.31;77.59;97736.59;5019029;28;20054;-70
2023/09/10 03:42:29;;;;;;;0.22;0.22;;;;;;;15.38;77.09;97730.09;5017416;28;20042;-68
2023/09/10 03:44:58;;;;;;;0.03;0.03;;;;;;;15.43;76.37;97726.75;5032485;28;20049;-69
2023/09/10 03:47:28;;;;;;;0.10;0.10;;;;;;;15.40;76.27;97727.19;5017645;28;20151;-70
2023/09/10 03:49:56;;;;;;;0.13;0.13;;;;;;;15.34;75.70;97728.09;5027767;28;20050;-69
2023/09/10 03:52:24;;;;;;;0.20;0.20;;;;;;;15.22;76.26;97725.31;5025761;28;20068;-69
2023/09/10 03:54:52;;;;;;;0.20;0.20;;;;;;;15.23;76.41;97718.06;5028915;28;20041;-70
2023/09/10 03:57:19;;;;;;;0.13;0.13;;;;;;;15.26;76.29;97718.41;5021336;28;20038;-70
2023/09/10 03:59:48;;;;;;;0.10;0.10;;;;;;;15.27;76.04;97727.31;5023912;28;20079;-69
2023/09/10 04:02:17;;;;;;;0.10;0.10;;;;;;;15.09;76.91;97720.03;5020406;28;20056;-70
2023/09/10 04:04:46;;;;;;;0.13;0.13;;;;;;;15.22;76.42;97721.78;5022795;28;20041;-69
2023/09/10 04:07:14;;;;;;;0.10;0.10;;;;;;;15.19;76.71;97714.16;5017331;28;20046;-70
2023/09/10 04:09:42;;;;;;;0.15;0.15;;;;;;;15.15;76.72;97711.09;5018636;28;20072;-70
2023/09/10 04:12:10;;;;;;;0.22;0.22;;;;;;;15.11;76.57;97717.13;5033183;28;20042;-70
2023/09/10 04:14:37;;;;;;;0.15;0.15;;;;;;;14.91;77.11;97725.34;5021003;28;20408;-69
2023/09/10 04:17:06;;;;;;;0.10;0.10;;;;;;;14.87;77.07;97722.28;5026945;28;20041;-69
2023/09/10 04:19:34;;;;;;;0.10;0.10;;;;;;;14.86;77.48;97723.31;5022148;28;20042;-69
2023/09/10 04:22:02;;;;;;;0.20;0.20;;;;;;;14.99;76.59;97720.53;5029584;28;20439;-70
2023/09/10 04:24:30;;;;;;;0.30;0.30;;;;;;;14.99;75.78;97728.59;5018020;28;20133;-70
2023/09/10 04:26:58;;;;;;;0.20;0.20;;;;;;;14.95;75.76;97721.19;5029622;28;20519;-70
2023/09/10 04:29:26;;;;;;;0.20;0.20;;;;;;;14.95;75.59;97724.69;5030664;28;20124;-70
2023/09/10 04:31:54;;;;;;;0.13;0.13;;;;;;;15.00;75.35;97732.09;5020612;28;20108;-70
2023/09/10 04:34:23;;;;;;;0.20;0.20;;;;;;;14.82;75.81;97727.50;5016156;28;20131;-70
2023/09/10 04:36:51;;;;;;;0.22;0.22;;;;;;;14.77;76.06;97730.00;5026626;28;20065;-70
2023/09/10 04:39:20;;;;;;;0.20;0.20;;;;;;;14.90;75.59;97737.16;5021345;28;20045;-69
2023/09/10 04:41:48;;;;;;;0.22;0.22;;;;;;;14.92;75.57;97729.69;5019343;28;20067;-69
2023/09/10 04:44:17;;;;;;;0.08;0.08;;;;;;;14.93;75.87;97731.34;5028605;28;20127;-69
2023/09/10 04:46:45;;;;;;;0.13;0.13;;;;;;;14.89;75.56;97732.81;5017330;28;20524;-71
2023/09/10 04:49:13;;;;;;;0.13;0.13;;;;;;;14.99;75.88;97744.72;5023870;28;20140;-70
2023/09/10 04:51:42;;;;;;;0.20;0.20;;;;;;;14.86;76.38;97735.94;5021277;28;20128;-71
2023/09/10 04:54:10;;;;;;;0.10;0.10;;;;;;;14.85;76.13;97740.47;5021777;28;20459;-69
2023/09/10 04:56:37;;;;;;;0.10;0.10;;;;;;;14.79;76.05;97743.22;5026703;28;20053;-71
2023/09/10 04:59:05;;;;;;;0.20;0.20;;;;;;;14.59;76.66;97752.25;5021778;28;20509;-70
2023/09/10 05:01:34;;;;;;;0.20;0.20;;;;;;;14.74;76.05;97743.91;5014443;28;20045;-70
2023/09/10 05:04:03;;;;;;;0.20;0.20;;;;;;;14.66;76.44;97752.19;5016246;28;20042;-70
2023/09/10 05:06:31;;;;;;;0.32;0.32;;;;;;;14.68;76.51;97760.88;5024206;28;20045;-70
2023/09/10 05:09:00;;;;;;;0.10;0.10;;;;;;;14.61;76.09;97760.91;5026156;28;20401;-69
2023/09/10 05:11:28;;;;;;;0.20;0.20;;;;;;;14.67;76.13;97759.22;5022319;28;20064;-70
2023/09/10 05:13:56;;;;;;;0.03;0.03;;;;;;;14.47;77.92;97767.38;5029240;28;20401;-68
2023/09/10 05:16:27;;;;;;;0.30;0.30;;;;;;;14.59;77.75;97762.16;5024144;28;20338;-70
2023/09/10 05:18:55;;;;;;;0.35;0.35;;;;;;;14.67;77.25;97768.09;5021611;28;20049;-70
2023/09/10 05:21:23;;;;;;;0.10;0.10;;;;;;;14.74;77.44;97762.69;5022847;28;20053;-69
2023/09/10 05:23:50;;;;;;;0.25;0.25;;;;;;;14.82;76.19;97773.19;5020231;28;20648;-69
2023/09/10 05:26:21;;;;;;;0.20;0.20;;;;;;;14.80;75.80;97771.75;5015035;28;20057;-70
2023/09/10 05:28:49;;;;;;;0.20;0.20;;;;;;;14.90;75.66;97774.78;5027396;28;20069;-69
2023/09/10 05:31:16;;;;;;;0.13;0.13;;;;;;;15.03;74.35;97778.19;5029536;28;20045;-70
2023/09/10 05:33:44;;;;;;;0.10;0.10;;;;;;;14.91;74.88;97785.31;5030382;28;20084;-70
2023/09/10 05:36:12;;;;;;;0.25;0.25;;;;;;;15.06;74.66;97784.97;5029600;28;20128;-70
2023/09/10 05:38:40;;;;;;;0.22;0.22;;;;;;;14.96;75.09;97787.34;5019473;28;20044;-70
2023/09/10 05:41:09;;;;;;;0.10;0.10;;;;;;;14.95;74.69;97783.81;5019157;28;20458;-70
2023/09/10 05:43:38;;;;;;;0.13;0.13;;;;;;;15.03;74.68;97780.06;5018312;28;20050;-69
2023/09/10 05:46:06;;;;;;;0.25;0.25;;;;;;;15.21;74.53;97782.81;5023931;28;20499;-69
2023/09/10 05:48:35;;;;;;;0.30;0.30;;;;;;;15.38;73.76;97788.44;5019329;28;20048;-69
2023/09/10 05:51:03;;;;;;;0.20;0.20;;;;;;;15.26;74.42;97780.28;5024789;28;20037;-69
2023/09/10 05:53:31;;;;;;;0.13;0.13;;;;;;;15.15;74.63;97786.38;5019722;28;20124;-69
2023/09/10 05:55:59;;;;;;;0.20;0.20;;;;;;;15.20;74.55;97786.53;5015055;28;20052;-71
2023/09/10 05:58:27;;;;;;;0.03;0.03;;;;;;;15.18;74.24;97785.09;5013667;28;20108;-71
2023/09/10 06:00:55;;;;;;;0.13;0.13;;;;;;;15.21;74.43;97788.19;5018172;28;20056;-72
2023/09/10 06:03:23;;;;;;;0.10;0.10;;;;;;;15.09;74.63;97792.63;5030707;28;20092;-72
2023/09/10 06:05:51;;;;;;;0.25;0.25;;;;;;;15.15;75.16;97789.06;5019280;28;20476;-71
2023/09/10 06:08:19;;;;;;;0.13;0.13;;;;;;;15.21;75.35;97782.00;5024756;28;20135;-71
2023/09/10 06:10:47;;;;;;;0.20;0.20;;;;;;;15.22;75.30;97783.63;5024920;28;20041;-70
2023/09/10 06:13:15;;;;;;;0.20;0.20;;;;;;;15.41;74.61;97782.63;5021824;28;20042;-70
2023/09/10 06:15:44;;;;;;;0.13;0.13;;;;;;;15.41;75.42;97788.03;5025866;28;20484;-69
2023/09/10 06:18:13;;;;;;;0.10;0.10;;;;;;;15.42;76.55;97785.13;5029110;28;20501;-70
2023/09/10 06:20:40;;;;;;;0.13;0.13;;;;;;;15.49;76.49;97786.91;5027899;28;20073;-69
2023/09/10 06:23:08;;;;;;;0.10;0.10;;;;;;;15.66;76.30;97779.97;5028799;28;20559;-70
2023/09/10 06:25:36;;;;;;;0.03;0.03;;;;;;;15.69;76.73;97784.88;5024630;28;20034;-72
2023/09/10 06:28:05;;;;;;;0.00;0.00;;;;;;;15.81;76.25;97788.50;5024561;28;20041;-71
2023/09/10 06:30:32;;;;;;;0.10;0.10;;;;;;;15.89;76.28;97784.69;5030236;28;20044;-68
2023/09/10 06:33:00;;;;;;;0.10;0.10;;;;;;;16.05;75.53;97784.91;5015958;28;20472;-69
2023/09/10 06:35:30;;;;;;;0.10;0.10;;;;;;;16.12;75.92;97782.97;5026879;28;20160;-69
2023/09/10 06:37:58;;;;;;;0.13;0.13;;;;;;;16.19;75.96;97791.00;5014057;28;20089;-69
2023/09/10 06:40:26;;;;;;;0.20;0.20;;;;;;;16.30;75.71;97781.31;5016650;28;20065;-69
2023/09/10 06:42:57;;;;;;;0.10;0.10;;;;;;;16.44;75.26;97782.78;5019304;28;20501;-69
2023/09/10 06:45:54;;;;;;;0.22;0.22;;;;;;;16.51;75.28;97780.81;5021558;28;20041;-68
2023/09/10 06:48:22;;;;;;;0.13;0.13;;;;;;;16.57;75.11;97785.31;5030130;28;20056;-68
2023/09/10 06:50:50;;;;;;;0.08;0.08;;;;;;;16.67;74.50;97785.63;5021025;28;20056;-68
2023/09/10 06:53:18;;;;;;;0.20;0.20;;;;;;;16.81;74.22;97780.88;5022007;28;20091;-68
2023/09/10 06:55:46;;;;;;;0.22;0.22;;;;;;;16.97;74.12;97784.78;5021161;28;20044;-71
2023/09/10 06:58:14;;;;;;;0.15;0.15;;;;;;;17.04;73.81;97774.69;5029966;28;20103;-68
2023/09/10 07:00:42;;;;;;;0.20;0.20;;;;;;;17.14;73.50;97777.66;5029041;28;20120;-69
2023/09/10 07:03:11;;;;;;;0.20;0.20;;;;;;;17.26;73.62;97783.88;5023815;28;20050;-69
2023/09/10 07:05:40;;;;;;;0.13;0.13;;;;;;;17.31;73.08;97781.31;5024464;28;20049;-68
2023/09/10 07:08:10;;;;;;;0.05;0.05;;;;;;;17.42;73.67;97775.13;5021300;28;20077;-68
2023/09/10 07:10:38;;;;;;;0.10;0.10;;;;;;;17.51;73.33;97779.13;5020789;28;20064;-69
2023/09/10 07:13:07;;;;;;;0.20;0.20;;;;;;;17.63;73.23;97772.94;5024504;28;20059;-69
2023/09/10 07:15:36;;;;;;;0.13;0.13;;;;;;;17.72;73.14;97783.13;5016580;28;20033;-69
2023/09/10 07:18:04;;;;;;;0.03;0.03;;;;;;;17.80;73.21;97779.25;5028776;28;20125;-68
2023/09/10 07:20:32;;;;;;;0.03;0.03;;;;;;;17.89;73.08;97783.22;5015443;28;20042;-69
2023/09/10 07:23:00;;;;;;;0.03;0.03;;;;;;;17.98;72.95;97782.63;5026717;28;20050;-68
2023/09/10 07:25:29;;;;;;;0.13;0.13;;;;;;;18.07;72.54;97771.44;5028439;28;20053;-68
2023/09/10 07:27:57;;;;;;;0.03;0.03;;;;;;;18.17;72.46;97783.28;5027585;28;20489;-69
2023/09/10 07:30:24;;;;;;;0.10;0.10;;;;;;;18.27;71.96;97782.72;5028581;28;20041;-68
2023/09/10 07:32:52;;;;;;;0.10;0.10;;;;;;;18.42;71.98;97790.28;5030261;28;20080;-69
2023/09/10 07:35:20;;;;;;;0.10;0.10;;;;;;;18.59;71.38;97780.38;5016901;28;20049;-68
2023/09/10 07:37:48;;;;;;;0.13;0.13;;;;;;;18.61;71.04;97791.78;5026433;28;20084;-70
2023/09/10 07:40:15;;;;;;;0.10;0.10;;;;;;;18.69;70.79;97786.81;5032722;28;20048;-70
2023/09/10 07:42:45;;;;;;;0.10;0.10;;;;;;;18.80;70.72;97781.59;5032399;28;20043;-69
2023/09/10 07:45:14;;;;;;;0.03;0.03;;;;;;;18.89;70.58;97785.56;5022894;28;20099;-70
2023/09/10 07:47:42;;;;;;;0.20;0.20;;;;;;;18.98;70.71;97784.09;5028821;28;20128;-70
2023/09/10 07:50:10;;;;;;;0.13;0.13;;;;;;;19.10;70.09;97784.88;5026231;28;20129;-70
2023/09/10 07:52:38;;;;;;;0.20;0.20;;;;;;;19.26;69.04;97778.63;5026365;28;20065;-70
2023/09/10 07:55:06;;;;;;;0.10;0.10;;;;;;;19.34;68.68;97780.09;5022927;28;20034;-69
2023/09/10 07:57:34;;;;;;;0.17;0.17;;;;;;;19.43;68.66;97774.03;5027480;28;20120;-69
2023/09/10 08:00:04;;;;;;;0.20;0.20;;;;;;;19.53;68.41;97772.56;5031905;28;20049;-69
2023/09/10 08:02:38;;;;;;;0.15;0.15;;;;;;;19.62;68.60;97761.06;5032408;28;20042;-69
2023/09/10 08:05:06;;;;;;;0.10;0.10;;;;;;;19.74;67.80;97767.22;5030928;28;20038;-69
2023/09/10 08:07:34;;;;;;;0.10;0.10;;;;;;;19.87;67.44;97770.66;5029141;28;20041;-70
2023/09/10 08:10:02;;;;;;;0.10;0.10;;;;;;;20.01;67.23;97770.06;5025772;28;20048;-69
2023/09/10 08:12:29;;;;;;;0.20;0.20;;;;;;;20.12;67.64;97779.13;5028527;28;20049;-71
2023/09/10 08:14:57;;;;;;;0.13;0.13;;;;;;;20.21;67.28;97771.38;5025309;28;20048;-69
2023/09/10 08:17:26;;;;;;;0.13;0.13;;;;;;;20.29;66.36;97770.94;5026377;28;20198;-70
2023/09/10 08:19:54;;;;;;;0.03;0.03;;;;;;;20.40;66.17;97767.31;5023172;28;20046;-70
2023/09/10 08:22:21;;;;;;;0.03;0.03;;;;;;;20.48;66.05;97770.38;5026171;28;20091;-70
2023/09/10 08:24:50;;;;;;;0.03;0.03;;;;;;;20.59;65.70;97774.03;5029098;28;20045;-69
2023/09/10 08:27:17;;;;;;;0.10;0.10;;;;;;;20.63;65.46;97769.75;5024591;28;20038;-70
2023/09/10 08:29:45;;;;;;;0.00;0.00;;;;;;;20.74;65.23;97776.94;5030464;28;20053;-70
2023/09/10 08:32:13;;;;;;;0.13;0.13;;;;;;;20.88;64.93;97771.91;5024181;28;20033;-70
2023/09/10 08:34:45;;;;;;;0.10;0.10;;;;;;;20.98;64.33;97776.59;5031482;28;20037;-71
2023/09/10 08:37:13;;;;;;;0.10;0.10;;;;;;;21.09;64.30;97775.63;5023477;28;20136;-71
2023/09/10 08:39:40;;;;;;;0.03;0.03;;;;;;;21.17;63.46;97775.19;5021848;28;20045;-71
2023/09/10 08:42:15;;;;;;;0.10;0.10;;;;;;;21.29;63.65;97770.41;5028773;28;20054;-71
2023/09/10 08:44:43;;;;;;;0.08;0.08;;;;;;;21.39;62.65;97772.38;5021351;28;20436;-71
2023/09/10 08:47:13;;;;;;;0.10;0.10;;;;;;;21.52;63.77;97777.38;5022909;28;20421;-71
2023/09/10 08:49:43;;;;;;;0.10;0.10;;;;;;;21.61;61.98;97771.22;5028673;28;20466;-71
2023/09/10 08:52:13;;;;;;;0.00;0.00;;;;;;;21.74;61.56;97777.28;5023543;28;20468;-72
2023/09/10 08:54:40;;;;;;;0.00;0.00;;;;;;;21.84;60.87;97780.06;5029500;28;20042;-71
2023/09/10 08:57:08;;;;;;;0.10;0.10;;;;;;;21.96;60.76;97776.06;5032313;28;20493;-71
2023/09/10 08:59:36;;;;;;;0.00;0.00;;;;;;;22.05;61.23;97768.25;5028177;28;20120;-72
2023/09/10 09:02:04;;;;;;;0.03;0.03;;;;;;;22.13;59.69;97770.47;5025143;28;20033;-71
2023/09/10 09:04:32;;;;;;;0.10;0.10;;;;;;;22.24;59.51;97776.78;5037441;28;20507;-71
2023/09/10 09:07:02;;;;;;;0.10;0.10;;;;;;;22.32;58.95;97776.28;5025901;28;20049;-71
2023/09/10 09:09:35;;;;;;;0.03;0.03;;;;;;;22.42;58.82;97772.78;5029920;28;20045;-71
2023/09/10 09:12:03;;;;;;;0.10;0.10;;;;;;;22.52;57.37;97770.94;5026498;28;20037;-71
2023/09/10 09:14:31;;;;;;;0.05;0.05;;;;;;;22.66;56.64;97774.75;5023427;28;20048;-71
2023/09/10 09:16:59;;;;;;;0.10;0.10;;;;;;;22.75;58.63;97779.69;5024178;28;20069;-71
2023/09/10 09:19:28;;;;;;;0.03;0.03;;;;;;;22.87;58.19;97772.94;5028396;28;20100;-71
2023/09/10 09:21:57;;;;;;;0.10;0.10;;;;;;;23.04;57.12;97770.81;5018152;28;20053;-71
2023/09/10 09:24:25;;;;;;;0.13;0.13;;;;;;;23.25;53.12;97768.09;5029459;28;20068;-71
2023/09/10 09:26:55;;;;;;;0.00;0.00;;;;;;;23.36;55.25;97772.47;5019339;28;20038;-71
2023/09/10 09:29:23;;;;;;;0.05;0.05;;;;;;;23.42;54.89;97766.75;5029961;28;20697;-71
2023/09/10 09:31:50;;;;;;;0.05;0.05;;;;;;;23.51;52.91;97767.03;5028117;28;20121;-71
2023/09/10 09:34:18;;;;;;;0.10;0.10;;;;;;;23.58;50.82;97764.84;5020265;28;20128;-71
2023/09/10 09:36:50;;;;;;;0.08;0.08;;;;;;;23.67;51.05;97759.69;5028301;28;20029;-71
2023/09/10 09:39:20;;;;;;;0.10;0.10;;;;;;;23.76;48.05;97766.19;5020289;28;20447;-71
2023/09/10 09:41:48;;;;;;;0.10;0.10;;;;;;;23.85;47.51;97756.38;5022334;28;20101;-73
2023/09/10 09:44:17;;;;;;;0.00;0.00;;;;;;;23.97;48.26;97753.34;5024372;28;20432;-71
2023/09/10 09:46:46;;;;;;;0.10;0.10;;;;;;;24.08;48.36;97754.94;5025202;28;20129;-71
2023/09/10 09:49:13;;;;;;;0.03;0.03;;;;;;;24.16;50.00;97757.09;5013432;28;20186;-71
2023/09/10 09:51:41;;;;;;;0.00;0.00;;;;;;;24.23;48.97;97759.56;5014969;28;20054;-71
2023/09/10 09:54:09;;;;;;;0.00;0.00;;;;;;;24.31;47.00;97753.50;5022400;28;20652;-72
2023/09/10 09:56:37;;;;;;;0.10;0.10;;;;;;;24.38;46.88;97754.06;5031726;28;20380;-73
2023/09/10 09:59:06;;;;;;;0.10;0.10;;;;;;;24.46;47.03;97751.56;5023256;28;20052;-72
2023/09/10 10:01:36;;;;;;;0.00;0.00;;;;;;;24.54;46.68;97743.88;5016123;28;20068;-70
2023/09/10 10:04:04;;;;;;;0.10;0.10;;;;;;;24.62;46.42;97746.81;5022635;28;20121;-71
2023/09/10 10:06:32;;;;;;;0.08;0.08;;;;;;;24.78;45.69;97747.56;5015835;28;20037;-72
2023/09/10 10:09:13;;;;;;;0.00;0.00;;;;;;;24.84;47.37;97746.41;5028725;28;20505;-73
2023/09/10 10:11:42;;;;;;;0.00;0.00;;;;;;;24.91;45.54;97740.66;5022238;28;20042;-73
2023/09/10 10:14:10;;;;;;;0.10;0.10;;;;;;;25.03;44.85;97750.16;5030009;28;20497;-73
2023/09/10 10:16:39;;;;;;;0.03;0.03;;;;;;;25.21;44.37;97745.94;5017390;28;20444;-73
2023/09/10 10:19:08;;;;;;;0.00;0.00;;;;;;;25.29;45.08;97739.03;5031121;28;20107;-72
2023/09/10 10:21:35;;;;;;;0.03;0.03;;;;;;;25.32;44.31;97741.22;5017999;28;20408;-73
2023/09/10 10:24:03;;;;;;;0.08;0.08;;;;;;;25.39;43.55;97742.50;5022741;28;20471;-73
2023/09/10 10:26:31;;;;;;;0.03;0.03;;;;;;;25.62;42.85;97746.44;5029998;28;20046;-72
2023/09/10 10:28:59;;;;;;;0.10;0.10;;;;;;;25.87;42.43;97748.91;5028988;28;20535;-71
2023/09/10 10:31:30;;;;;;;0.00;0.00;;;;;;;26.17;41.14;97739.53;5022804;28;20050;-72
2023/09/10 10:34:04;;;;;;;0.03;0.03;;;;;;;26.59;40.27;97737.94;5022754;28;20045;-71
2023/09/10 10:36:36;;;;;;;0.03;0.03;;;;;;;26.89;39.66;97742.22;5011590;28;20038;-72
2023/09/10 10:39:09;;;;;;;0.00;0.00;;;;;;;26.91;40.83;97739.97;5018491;28;20048;-73
2023/09/10 10:41:40;;;;;;;0.00;0.00;;;;;;;26.82;40.04;97736.28;5018634;28;20076;-74
2023/09/10 10:44:13;;;;;;;0.00;0.00;;;;;;;27.11;38.35;97736.13;5025054;28;20164;-71
2023/09/10 10:46:44;;;;;;;0.10;0.10;;;;;;;27.34;38.99;97727.00;5026727;28;20045;-72
2023/09/10 10:49:13;;;;;;;0.00;0.00;;;;;;;27.09;38.73;97730.97;5021176;28;20033;-71
2023/09/10 10:51:45;;;;;;;0.00;0.00;;;;;;;27.14;40.08;97730.88;5019602;28;20433;-72
2023/09/10 10:54:23;;;;;;;0.00;0.00;;;;;;;27.03;39.03;97726.66;5018502;28;20053;-71
2023/09/10 10:56:51;;;;;;;0.03;0.03;;;;;;;27.11;39.64;97730.66;5030488;28;20041;-71
2023/09/10 10:59:19;;;;;;;0.03;0.03;;;;;;;27.25;38.74;97710.41;5022551;28;20050;-71
2023/09/10 11:02:15;;;;;;;0.00;0.00;;;;;;;27.40;38.10;97707.44;5024018;28;20049;-71
2023/09/10 11:04:58;;;;;;;0.00;0.00;;;;;;;27.58;38.72;97710.44;5019786;28;20046;-71
2023/09/10 11:07:30;;;;;;;0.00;0.00;;;;;;;27.67;38.17;97705.88;5021391;28;20066;-71
2023/09/10 11:09:58;;;;;;;0.00;0.00;;;;;;;27.77;37.78;97714.75;5025887;28;20081;-71
2023/09/10 11:12:27;;;;;;;0.00;0.00;;;;;;;27.87;37.52;97716.47;5021239;28;20056;-71
2023/09/10 11:15:06;;;;;;;0.00;0.00;;;;;;;27.95;37.05;97707.53;5027481;28;20041;-71
2023/09/10 11:17:35;;;;;;;0.10;0.10;;;;;;;28.39;36.31;97714.38;5020928;28;20049;-71
2023/09/10 11:20:05;;;;;;;0.00;0.00;;;;;;;28.91;35.51;97706.66;5022494;28;20112;-72
2023/09/10 11:23:04;;;;;;;0.03;0.03;;;;;;;29.07;34.69;97708.72;5022901;28;20632;-72
2023/09/10 11:25:32;;;;;;;0.00;0.00;;;;;;;28.95;35.31;97707.66;5024402;28;20061;-71
2023/09/10 11:28:00;;;;;;;0.00;0.00;;;;;;;28.87;35.22;97697.38;5029470;28;20041;-71
2023/09/10 11:30:28;;;;;;;0.00;0.00;;;;;;;29.05;34.68;97701.94;5024275;28;20046;-71
2023/09/10 11:33:30;;;;;;;0.00;0.00;;;;;;;29.29;34.58;97694.16;5022880;28;20046;-71
2023/09/10 11:35:59;;;;;;;0.03;0.03;;;;;;;29.37;34.21;97698.16;5015242;28;20046;-71
2023/09/10 11:38:31;;;;;;;0.00;0.00;;;;;;;29.36;34.17;97696.47;5024561;28;20050;-71
2023/09/10 11:40:59;;;;;;;;;;;;;;;29.59;33.88;97697.31;5027883;28;20091;-71
2023/09/10 11:43:28;;;;;;;0.00;0.00;;;;;;;29.67;33.48;97694.59;5029227;28;19948;-71